ICAO code: LHPR | IATA code: QGY | AFTN: LHPRZPZX | magyar | deutsch
Weather : 2018-12-11 15:50 (UTC) | Temperature: 3.9 °C | QNH: 1015.2 hPa | Wind: 9.1 m/s | More
Live ATC LHPR
Live webcam

Győr-Pér Airport Meteor data

Metar:
METAR LHPR 111545Z AUTO 29018KT 9999 -SHRA BKN023 04/00 Q1015 RMK WH


Taf:
TAF LHPR 111415Z 1115/1124 28014G24KT 9999 SCT040 BKN070
TEMPO 1115/1124 4000 -RASN -SN BKN020 OVC050


Present weather:
Cloud development not observed or observable
Date stamp: 2018-12-11 15:50:00 UTC
Air Temp:
3.9 °C
 
Dewpoint:
0.3 °C
 
Rel. Humidity:
77%
 
QNH:
1015.2 hPa
 
Wind speed:
9.1 m/s
Max:
12.9 m/s
Wind direction:
300°
 
Precipitation (1 hour):
0.0 mm
 
Visibility:
20000 m
 
RVR:
>1500 m RWY30
 
1st cloud layer quantity:
6 octa
 
1st cloud layer base:
730 m


Az adatokat szolgáltatja
az Országos Meteorológiai Szolgálat
Győr-Pér Airport | H 9099 Pér, Repülőtér | Tel: +36/96/559-200 | Fax: +36/96/559-202

ICAO code: LHPR | IATA code: QGY | AFTN: LHPRZPZX


weboldal tervezés: IRQ